Terminal Aerodrome Forecast
Issued by NWS Corpus Christi, TX

Home | Current Version | Previous Version | Text Only | Print | Product List | Glossary On
Versions: 1 2 3 4 5 6 7 8 9 10 11 12 13 14
000
FTUS44 KCRP 280521
TAFVCT
TAF
KVCT 280521Z 2806/2906 15006KT P6SM FEW015
      TEMPO 2808/2812 5SM BR BKN012
     FM281900 16013G18KT P6SM FEW040
     FM290200 14011KT P6SM FEW015=

USA.gov is the U.S. government's official web portal to all federal, state and local government web resources and services.